Time;durP1;ratioP1;P1;durP2;ratioP2;P2;SDS_P1;SDS_P2;PMS_P1;PMS_P2;Temp;Humidity;BMP_temperature;BMP_pressure;BME280_temperature;BME280_humidity;BME280_pressure;Samples;Min_cycle;Max_cycle;Signal;HPM_P1;HPM_P2
2022/01/14 00:00:38;;;;;;;;;19.50;19.50;;;;;6.79;60.43;103298.31;4929393;28;45437;-68
2022/01/14 00:03:03;;;;;;;;;38.75;25.75;;;;;6.63;60.63;103265.97;4920238;28;46040;-67
2022/01/14 00:05:29;;;;;;;;;35.00;30.75;;;;;6.78;60.30;103298.19;4920502;28;45494;-68
2022/01/14 00:07:54;;;;;;;;;33.00;27.00;;;;;6.86;60.51;103299.75;4918967;28;45438;-68
2022/01/14 00:10:19;;;;;;;;;29.50;26.50;;;;;6.69;60.24;103261.16;4925354;28;45332;-67
2022/01/14 00:12:52;;;;;;;;;40.50;30.00;;;;;6.92;60.02;103294.03;4920894;28;46462;-67
2022/01/14 00:15:24;;;;;;;;;28.75;22.00;;;;;6.93;60.08;103295.84;4923079;28;45311;-67
2022/01/14 00:17:54;;;;;;;;;33.75;26.75;;;;;6.93;60.01;103285.22;4923432;28;45507;-67
2022/01/14 00:20:21;;;;;;;;;38.25;31.50;;;;;6.95;60.41;103289.88;4929926;28;45526;-66
2022/01/14 00:22:47;;;;;;;;;31.50;28.50;;;;;6.89;60.16;103269.84;4931185;28;46339;-68
2022/01/14 00:33:24;;;;;;;;;42.75;30.25;;;;;6.88;59.90;103281.28;4924376;28;45952;-67
2022/01/14 00:35:49;;;;;;;;;30.00;27.25;;;;;6.93;60.28;103295.84;4922016;28;45519;-66
2022/01/14 00:38:15;;;;;;;;;30.25;25.75;;;;;6.94;60.28;103298.63;4924888;28;45220;-67
2022/01/14 00:40:40;;;;;;;;;34.50;25.00;;;;;6.86;60.02;103283.78;4943569;28;45403;-67
2022/01/14 00:43:06;;;;;;;;;32.50;30.50;;;;;6.91;60.21;103281.53;4928838;28;46033;-67
2022/01/14 00:45:31;;;;;;;;;32.75;27.25;;;;;6.91;60.14;103284.19;4914383;28;45514;-67
2022/01/14 00:47:59;;;;;;;;;44.50;36.00;;;;;6.90;59.93;103275.28;4924520;28;45551;-67
2022/01/14 00:50:24;;;;;;;;;43.50;35.50;;;;;6.78;60.18;103242.38;4912581;28;45811;-67
2022/01/14 00:52:49;;;;;;;;;48.50;33.50;;;;;6.46;60.20;103188.47;4938711;28;49012;-70
2022/01/14 00:55:18;;;;;;;;;38.25;35.25;;;;;6.89;59.92;103270.78;4949185;28;45483;-68
2022/01/14 01:00:28;;;;;;;;;42.00;34.25;;;;;6.83;60.30;103276.53;4926475;28;45287;-67
2022/01/14 01:02:54;;;;;;;;;38.00;28.75;;;;;6.87;59.97;103272.38;4933944;28;46139;-67
2022/01/14 01:05:20;;;;;;;;;28.00;25.50;;;;;6.73;59.80;103241.09;4919442;28;45299;-66
2022/01/14 01:07:55;;;;;;;;;29.75;29.50;;;;;6.89;60.02;103272.50;4919767;28;45469;-67
2022/01/14 01:10:23;;;;;;;;;34.25;28.25;;;;;6.90;59.90;103271.72;4918913;28;46023;-67
2022/01/14 01:15:16;;;;;;;;;33.50;30.50;;;;;6.91;59.62;103276.22;4939851;28;45354;-67
2022/01/14 01:17:42;;;;;;;;;34.00;32.25;;;;;6.60;59.65;103209.91;4931162;28;45320;-67
2022/01/14 01:20:18;;;;;;;;;36.00;30.00;;;;;6.91;59.54;103279.78;4921138;28;45392;-67
2022/01/14 01:22:48;;;;;;;;;35.75;27.75;;;;;6.83;59.57;103267.63;4920767;28;46077;-67
2022/01/14 01:25:17;;;;;;;;;35.75;30.25;;;;;6.77;60.14;103268.03;4927500;28;45431;-66
2022/01/14 01:27:45;;;;;;;;;34.00;27.25;;;;;6.87;59.98;103272.38;4934918;28;45534;-67
2022/01/14 01:30:49;;;;;;;;;34.50;27.00;;;;;6.76;60.03;103251.97;4935763;28;45257;-66
2022/01/14 01:33:12;;;;;;;;;33.75;28.75;;;;;6.52;59.97;103192.47;4937743;28;45457;-66
2022/01/14 01:35:38;;;;;;;;;34.00;24.50;;;;;6.79;59.48;103238.94;4931592;28;45332;-66
2022/01/14 01:38:03;;;;;;;;;34.25;28.00;;;;;6.95;59.73;103268.63;4929923;28;45564;-66
2022/01/14 01:40:29;;;;;;;;;29.25;24.50;;;;;6.99;59.79;103261.81;4934931;28;45278;-67
2022/01/14 01:42:57;;;;;;;;;34.00;28.25;;;;;7.03;59.66;103265.66;4933810;28;46252;-67
2022/01/14 01:45:25;;;;;;;;;30.75;24.75;;;;;6.97;59.68;103266.09;4928780;28;45372;-67
2022/01/14 01:47:54;;;;;;;;;29.00;25.75;;;;;6.96;59.58;103258.91;4926686;28;45231;-66
2022/01/14 01:50:26;;;;;;;;;37.75;27.75;;;;;6.97;59.71;103276.72;4935715;28;45273;-68
2022/01/14 01:52:52;;;;;;;;;34.75;30.25;;;;;6.95;59.26;103273.03;4938198;28;45576;-68
2022/01/14 01:55:20;;;;;;;;;35.00;26.25;;;;;6.96;59.61;103269.53;4930152;28;45447;-67
2022/01/14 01:57:46;;;;;;;;;30.50;25.25;;;;;6.97;59.55;103272.31;4939968;28;45335;-66
2022/01/14 02:00:15;;;;;;;;;40.25;30.00;;;;;6.89;59.35;103252.16;4930018;28;45525;-66
2022/01/14 02:02:41;;;;;;;;;40.25;27.50;;;;;6.76;59.45;103217.44;4927214;28;46252;-67
2022/01/14 02:05:08;;;;;;;;;37.00;31.50;;;;;6.97;59.52;103266.09;4915270;28;45433;-67
2022/01/14 02:07:33;;;;;;;;;32.00;21.75;;;;;6.92;59.37;103246.19;4929885;28;45604;-67
2022/01/14 02:10:02;;;;;;;;;32.50;28.00;;;;;6.84;59.54;103226.94;4938091;28;45406;-66
2022/01/14 02:12:36;;;;;;;;;26.75;25.00;;;;;7.01;59.20;103247.88;4941815;28;45400;-67
2022/01/14 02:15:28;;;;;;;;;32.50;29.50;;;;;7.00;59.35;103243.34;4932403;28;45300;-66
2022/01/14 02:23:24;;;;;;;;;32.25;25.00;;;;;6.82;59.53;103208.22;4936629;28;45462;-68
2022/01/14 02:25:50;;;;;;;;;33.75;30.25;;;;;6.99;59.20;103245.88;4936364;28;45002;-67
2022/01/14 02:28:17;;;;;;;;;29.25;27.50;;;;;6.81;59.46;103219.69;4940539;28;45083;-67
2022/01/14 02:30:46;;;;;;;;;32.75;29.25;;;;;6.47;59.76;103160.22;4942040;28;45131;-67
2022/01/14 02:33:13;;;;;;;;;36.50;27.00;;;;;6.96;59.53;103237.66;4936957;28;45793;-67
2022/01/14 02:35:41;;;;;;;;;37.25;28.50;;;;;6.96;59.39;103242.97;4934301;28;45143;-66
2022/01/14 02:38:10;;;;;;;;;29.25;23.50;;;;;6.91;59.41;103234.59;4939278;28;45048;-67
2022/01/14 02:40:36;;;;;;;;;27.25;23.75;;;;;6.92;59.50;103231.16;4941812;28;45410;-66
2022/01/14 02:43:02;;;;;;;;;41.50;30.75;;;;;6.94;59.59;103232.19;4950563;28;45739;-66
2022/01/14 02:45:33;;;;;;;;;29.25;24.25;;;;;6.90;59.59;103232.78;4952369;28;45087;-68
2022/01/14 02:48:00;;;;;;;;;27.25;27.00;;;;;6.80;59.53;103212.50;4936175;28;45152;-66
2022/01/14 02:50:28;;;;;;;;;36.25;30.50;;;;;6.73;59.76;103211.84;4936111;28;45229;-67
2022/01/14 02:52:55;;;;;;;;;35.25;34.50;;;;;6.71;60.14;103202.84;4950593;28;45803;-68
2022/01/14 02:55:27;;;;;;;;;34.25;29.50;;;;;6.60;60.05;103188.66;4950779;28;44980;-70
2022/01/14 02:57:55;;;;;;;;;39.75;30.75;;;;;6.85;59.90;103217.25;4938092;28;45340;-68
2022/01/14 03:00:28;;;;;;;;;36.75;32.50;;;;;6.78;59.71;103211.44;4938269;28;45298;-68
2022/01/14 03:02:54;;;;;;;;;36.25;31.50;;;;;6.88;59.76;103217.50;4935721;28;45603;-68
2022/01/14 03:05:21;;;;;;;;;43.00;34.00;;;;;6.89;59.47;103212.31;4934073;28;45212;-66
2022/01/14 03:07:47;;;;;;;;;33.75;30.00;;;;;6.41;59.66;103127.84;4927167;28;45398;-66
2022/01/14 03:10:15;;;;;;;;;40.00;33.00;;;;;6.87;60.34;103200.63;4921470;28;45659;-66
2022/01/14 03:12:41;;;;;;;;;37.75;33.50;;;;;6.85;59.79;103199.59;4920072;28;47500;-68
2022/01/14 03:15:08;;;;;;;;;35.50;26.00;;;;;6.86;59.74;103181.91;4937324;28;45374;-67
2022/01/14 03:17:34;;;;;;;;;38.50;31.75;;;;;6.88;59.63;103188.25;4937416;28;45395;-67
2022/01/14 03:20:01;;;;;;;;;38.00;33.50;;;;;6.88;59.86;103182.94;4948691;28;44999;-67
2022/01/14 03:22:34;;;;;;;;;35.75;27.00;;;;;6.92;59.50;103191.28;4931026;28;45592;-66
2022/01/14 03:27:48;;;;;;;;;32.75;28.00;;;;;6.92;59.19;103185.97;4930239;28;45579;-68
2022/01/14 03:30:14;;;;;;;;;37.75;31.75;;;;;6.92;59.46;103190.38;4932494;28;46196;-67
2022/01/14 03:32:42;;;;;;;;;34.25;25.75;;;;;6.74;59.45;103155.28;4927072;28;45706;-66
2022/01/14 03:35:08;;;;;;;;;31.00;27.00;;;;;6.48;59.08;103115.97;4925783;28;45479;-66
2022/01/14 03:37:34;;;;;;;;;33.75;28.00;;;;;6.80;59.57;103175.28;4933861;28;45054;-66
2022/01/14 03:39:59;;;;;;;;;36.25;30.75;;;;;6.82;59.92;103176.34;4936980;28;45208;-67
2022/01/14 03:42:25;;;;;;;;;39.75;28.50;;;;;6.85;59.84;103185.34;4934953;28;45474;-67
2022/01/14 03:44:50;;;;;;;;;39.50;30.25;;;;;6.68;59.58;103147.72;4923736;28;45398;-67
2022/01/14 03:47:15;;;;;;;;;39.00;28.75;;;;;6.79;59.46;103192.03;4933808;28;45468;-67
2022/01/14 03:49:41;;;;;;;;;39.00;29.00;;;;;6.76;59.71;103197.09;4936716;28;45441;-68
2022/01/14 03:52:06;;;;;;;;;36.75;28.25;;;;;6.65;59.55;103179.38;4932233;28;46095;-66
2022/01/14 03:54:32;;;;;;;;;32.50;30.75;;;;;6.60;59.48;103164.75;4926979;28;45500;-66
2022/01/14 03:56:57;;;;;;;;;39.75;31.75;;;;;6.72;59.67;103186.13;4932914;28;45595;-67
2022/01/14 03:59:22;;;;;;;;;49.50;32.75;;;;;6.56;59.61;103160.03;4942624;28;45503;-67
2022/01/14 04:01:48;;;;;;;;;32.50;28.75;;;;;6.59;59.71;103160.28;4940467;28;45567;-68
2022/01/14 04:04:13;;;;;;;;;38.75;31.00;;;;;6.69;59.67;103176.16;4933770;28;45143;-69
2022/01/14 04:06:38;;;;;;;;;40.50;33.50;;;;;6.66;59.67;103169.66;4933718;28;45028;-67
2022/01/14 04:09:05;;;;;;;;;37.75;32.25;;;;;6.67;59.59;103179.50;4935723;28;44993;-66
2022/01/14 04:11:33;;;;;;;;;39.00;30.00;;;;;6.59;59.72;103169.16;4941006;28;45932;-68
2022/01/14 04:14:07;;;;;;;;;34.75;31.00;;;;;6.61;59.37;103167.53;4938781;28;45268;-67
2022/01/14 04:16:33;;;;;;;;;35.50;33.75;;;;;6.68;60.46;103178.69;4934368;28;45036;-67
2022/01/14 04:18:58;;;;;;;;;30.50;25.75;;;;;6.62;59.64;103176.47;4943084;28;45207;-66
2022/01/14 04:21:26;;;;;;;;;41.25;36.00;;;;;6.12;59.85;103094.53;4952884;28;45641;-67
2022/01/14 04:23:51;;;;;;;;;44.00;38.25;;;;;6.52;59.53;103176.53;4934871;28;45127;-66
2022/01/14 04:26:17;;;;;;;;;36.75;32.25;;;;;6.55;59.67;103187.38;4951905;28;45283;-66
2022/01/14 04:28:42;;;;;;;;;34.25;28.00;;;;;6.46;59.80;103187.56;4946180;28;44987;-67
2022/01/14 04:31:09;;;;;;;;;49.75;34.50;;;;;6.33;59.61;103145.78;4934936;28;45843;-68
2022/01/14 04:33:35;;;;;;;;;49.50;36.25;;;;;6.40;59.76;103153.47;4939697;28;45088;-67
2022/01/14 04:36:02;;;;;;;;;48.50;35.00;;;;;6.53;59.83;103167.72;4949331;28;45291;-67
2022/01/14 04:38:29;;;;;;;;;43.00;35.25;;;;;6.45;59.67;103157.44;4932158;28;45274;-67
2022/01/14 04:40:55;;;;;;;;;35.25;31.25;;;;;6.41;59.59;103157.03;4934062;28;45576;-66
2022/01/14 04:43:21;;;;;;;;;36.25;32.50;;;;;6.48;59.84;103171.75;4938888;28;44913;-69
2022/01/14 04:48:27;;;;;;;;;39.50;32.25;;;;;6.32;59.94;103137.69;4937917;28;45155;-70
2022/01/14 04:50:54;;;;;;;;;37.00;29.50;;;;;6.43;60.16;103159.03;4939121;28;46657;-68
2022/01/14 04:53:21;;;;;;;;;46.00;36.75;;;;;6.45;60.28;103159.13;4946466;28;44949;-66
2022/01/14 04:55:47;;;;;;;;;38.25;35.25;;;;;6.23;60.20;103121.94;4954004;28;44984;-66
2022/01/14 04:58:12;;;;;;;;;37.00;34.25;;;;;6.43;60.22;103152.78;4941951;28;45303;-67
2022/01/14 05:00:39;;;;;;;;;38.50;33.00;;;;;6.45;59.99;103137.88;4930872;28;46273;-68
2022/01/14 05:03:04;;;;;;;;;33.75;23.75;;;;;6.46;59.98;103137.09;4934086;28;45428;-68
2022/01/14 05:05:33;;;;;;;;;36.50;29.75;;;;;6.33;59.87;103126.28;4925026;28;45316;-70
2022/01/14 05:07:59;;;;;;;;;39.50;26.50;;;;;6.20;60.15;103112.00;4946200;28;45197;-69
2022/01/14 05:12:51;;;;;;;;;41.00;35.00;;;;;6.38;60.12;103152.38;4932766;28;45477;-67
2022/01/14 05:15:17;;;;;;;;;44.25;34.25;;;;;6.35;60.24;103137.94;4930545;28;45445;-68
2022/01/14 05:17:43;;;;;;;;;38.25;34.25;;;;;6.22;60.02;103126.34;4934054;28;45311;-67
2022/01/14 05:20:10;;;;;;;;;42.75;35.50;;;;;6.18;60.00;103116.25;4934360;28;45803;-66
2022/01/14 05:22:35;;;;;;;;;40.00;35.25;;;;;6.35;59.93;103132.63;4920238;28;46029;-66
2022/01/14 05:25:01;;;;;;;;;32.25;30.25;;;;;6.36;60.53;103145.13;4925708;28;45375;-68
2022/01/14 05:27:26;;;;;;;;;31.25;27.50;;;;;6.32;60.03;103148.31;4930952;28;45787;-69
2022/01/14 05:29:51;;;;;;;;;39.00;30.75;;;;;5.96;60.12;103068.44;4938513;28;45454;-67
2022/01/14 05:32:17;;;;;;;;;41.75;31.75;;;;;6.40;60.00;103136.59;4937710;28;45457;-67
2022/01/14 05:34:44;;;;;;;;;37.25;34.00;;;;;6.42;59.97;103146.53;4934878;28;45469;-69
2022/01/14 05:37:11;;;;;;;;;37.50;29.75;;;;;6.42;59.80;103149.19;4930577;28;45578;-66
2022/01/14 05:39:37;;;;;;;;;37.50;25.25;;;;;6.43;59.89;103156.38;4935387;28;45725;-66
2022/01/14 05:42:03;;;;;;;;;35.50;29.75;;;;;6.45;59.97;103159.13;4937581;28;45604;-67
2022/01/14 05:44:30;;;;;;;;;37.50;33.25;;;;;6.34;59.90;103142.34;4928741;28;45392;-71
2022/01/14 05:46:57;;;;;;;;;45.50;31.00;;;;;6.43;60.31;103160.75;4927505;28;45472;-68
2022/01/14 05:49:23;;;;;;;;;39.50;31.00;;;;;6.19;60.38;103117.19;4931138;28;46584;-67
2022/01/14 05:51:49;;;;;;;;;42.00;38.00;;;;;6.24;59.72;103130.03;4940694;28;45588;-66
2022/01/14 05:54:16;;;;;;;;;38.50;29.75;;;;;6.40;59.92;103168.44;4941156;28;45392;-66
2022/01/14 05:56:42;;;;;;;;;39.50;35.75;;;;;6.11;59.99;103108.59;4939319;28;45677;-66
2022/01/14 05:59:07;;;;;;;;;47.25;36.50;;;;;6.40;60.26;103157.81;4928509;28;46176;-70
2022/01/14 06:01:33;;;;;;;;;49.25;36.50;;;;;6.33;60.32;103139.56;4928079;28;45491;-68
2022/01/14 06:04:00;;;;;;;;;36.50;33.75;;;;;6.45;60.29;103157.44;4924538;28;45324;-67
2022/01/14 06:06:26;;;;;;;;;46.25;38.50;;;;;6.26;59.90;103119.53;4927907;28;45471;-67
2022/01/14 06:08:52;;;;;;;;;51.50;35.50;;;;;6.43;60.04;103164.34;4936537;28;46422;-70
2022/01/14 06:11:18;;;;;;;;;45.25;36.75;;;;;6.39;60.08;103156.91;4930640;28;45441;-67
2022/01/14 06:13:44;;;;;;;;;41.50;31.75;;;;;6.37;60.34;103144.28;4918894;28;45489;-71
2022/01/14 06:16:09;;;;;;;;;34.25;29.75;;;;;6.44;60.16;103154.63;4923200;28;45216;-66
2022/01/14 06:18:35;;;;;;;;;47.75;31.25;;;;;6.06;60.59;103091.38;4944788;28;46234;-67
2022/01/14 06:21:00;;;;;;;;;39.50;30.00;;;;;6.07;60.47;103115.38;4945798;28;45111;-67
2022/01/14 06:23:26;;;;;;;;;36.50;30.00;;;;;6.41;60.57;103165.00;4952663;28;45295;-67
2022/01/14 06:25:51;;;;;;;;;43.50;37.00;;;;;6.43;60.52;103164.34;4943415;28;45276;-68
2022/01/14 06:28:17;;;;;;;;;50.50;41.25;;;;;5.75;60.26;103035.72;4936403;28;45175;-68
2022/01/14 06:30:42;;;;;;;;;34.25;32.00;;;;;6.45;60.18;103164.44;4939907;28;45575;-71
2022/01/14 06:33:07;;;;;;;;;42.50;34.75;;;;;6.49;60.35;103158.59;4934570;28;45343;-73
2022/01/14 06:35:33;;;;;;;;;44.75;35.75;;;;;6.52;60.30;103165.91;4946860;28;45429;-67
2022/01/14 06:38:00;;;;;;;;;42.75;35.00;;;;;6.47;60.03;103149.59;4951310;28;45913;-68
2022/01/14 06:40:26;;;;;;;;;35.00;33.75;;;;;6.39;60.29;103142.72;4937921;28;45010;-69
2022/01/14 06:42:51;;;;;;;;;42.50;34.50;;;;;6.50;60.99;103154.19;4953169;28;45186;-70
2022/01/14 06:45:18;;;;;;;;;33.00;30.75;;;;;6.52;60.24;103147.31;4951831;28;45397;-66
2022/01/14 06:47:43;;;;;;;;;46.25;33.00;;;;;6.49;60.66;103134.69;4946056;28;45634;-69
2022/01/14 06:50:09;;;;;;;;;43.25;36.75;;;;;6.62;59.88;103145.50;4941918;28;45209;-69
2022/01/14 06:52:34;;;;;;;;;31.50;25.75;;;;;6.62;60.60;103144.59;4935666;28;45058;-69
2022/01/14 06:55:00;;;;;;;;;41.00;31.25;;;;;6.68;60.16;103145.06;4949712;28;45111;-67
2022/01/14 06:57:25;;;;;;;;;38.25;31.25;;;;;6.70;60.45;103146.13;4936959;28;46060;-68
2022/01/14 06:59:50;;;;;;;;;34.25;29.00;;;;;6.22;60.47;103049.34;4923822;28;45563;-65
2022/01/14 07:02:16;;;;;;;;;39.00;34.00;;;;;6.76;60.03;103145.69;4938428;28;45254;-65
2022/01/14 07:04:41;;;;;;;;;39.50;35.00;;;;;6.76;60.14;103135.97;4947653;28;45267;-71
2022/01/14 07:07:07;;;;;;;;;46.00;34.75;;;;;6.82;60.49;103143.53;4937738;28;45372;-66
2022/01/14 07:09:38;;;;;;;;;54.00;39.25;;;;;6.79;60.49;103133.56;4925459;28;45644;-66
2022/01/14 07:12:04;;;;;;;;;35.00;30.50;;;;;6.65;60.31;103099.69;4924617;28;45458;-67
2022/01/14 07:14:29;;;;;;;;;34.25;26.50;;;;;6.91;60.18;103138.94;4925039;28;45344;-67
2022/01/14 07:16:55;;;;;;;;;39.00;30.75;;;;;6.94;60.11;103146.25;4913828;28;46229;-70
2022/01/14 07:19:22;;;;;;;;;33.25;27.50;;;;;6.95;60.33;103140.13;4932446;28;45436;-67
2022/01/14 07:21:48;;;;;;;;;33.75;28.50;;;;;6.87;60.13;103118.25;4939323;28;45073;-67
2022/01/14 07:24:13;;;;;;;;;40.75;35.75;;;;;6.99;60.00;103134.25;4950706;28;45209;-65
2022/01/14 07:26:40;;;;;;;;;39.25;30.00;;;;;6.89;60.03;103113.06;4944293;28;45392;-65
2022/01/14 07:29:05;;;;;;;;;44.00;36.25;;;;;7.05;59.87;103132.09;4939148;28;45345;-70
2022/01/14 07:31:31;;;;;;;;;51.00;30.75;;;;;7.08;59.94;103131.38;4937402;28;45040;-66
2022/01/14 07:33:56;;;;;;;;;35.75;30.50;;;;;7.06;59.95;103127.69;4923442;28;45331;-65
2022/01/14 07:36:22;;;;;;;;;31.00;26.25;;;;;6.88;60.07;103096.22;4918847;28;46214;-65
2022/01/14 07:38:47;;;;;;;;;30.00;26.25;;;;;7.08;60.14;103137.63;4918998;28;45548;-69
2022/01/14 07:41:13;;;;;;;;;40.50;32.25;;;;;7.01;59.79;103124.66;4918593;28;45561;-66
2022/01/14 07:43:39;;;;;;;;;43.50;27.25;;;;;7.10;60.36;103136.03;4919352;28;45455;-66
2022/01/14 07:46:05;;;;;;;;;40.00;33.25;;;;;7.13;60.08;103130.94;4918019;28;45949;-68
2022/01/14 07:48:31;;;;;;;;;55.50;37.25;;;;;7.08;59.93;103120.75;4917241;28;45273;-74
2022/01/14 07:50:57;;;;;;;;;62.00;48.50;;;;;7.01;60.25;103109.66;4917073;28;45330;-66
2022/01/14 07:53:22;;;;;;;;;41.75;36.75;;;;;7.14;60.00;103137.19;4917454;28;45473;-66
2022/01/14 07:55:47;;;;;;;;;51.25;36.25;;;;;7.19;59.95;103150.06;4917057;28;46539;-68
2022/01/14 07:58:14;;;;;;;;;42.00;32.50;;;;;7.19;60.17;103141.13;4917008;28;45379;-66
2022/01/14 08:00:41;;;;;;;;;45.50;38.00;;;;;7.16;59.76;103138.22;4917106;28;45576;-65
2022/01/14 08:03:07;;;;;;;;;33.25;28.75;;;;;7.08;59.88;103113.72;4900216;28;45361;-67
2022/01/14 08:05:33;;;;;;;;;40.00;33.50;;;;;7.23;59.94;103134.34;4917081;28;46498;-66
2022/01/14 08:08:03;;;;;;;;;33.50;28.50;;;;;7.30;59.34;103136.66;4916726;28;45383;-67
2022/01/14 08:10:29;;;;;;;;;38.25;31.50;;;;;7.12;59.26;103122.84;4917109;28;45474;-66
2022/01/14 08:12:54;;;;;;;;;43.00;34.75;;;;;7.00;59.89;103089.19;4916759;28;45396;-66
2022/01/14 08:15:20;;;;;;;;;43.50;31.00;;;;;7.27;59.32;103137.34;4916862;28;45610;-66
2022/01/14 08:17:45;;;;;;;;;41.75;29.25;;;;;7.22;59.29;103145.78;4899371;28;45584;-68
2022/01/14 08:20:11;;;;;;;;;46.50;35.50;;;;;7.29;59.23;103145.44;4916951;28;46021;-66
2022/01/14 08:22:36;;;;;;;;;34.50;28.50;;;;;7.34;59.17;103147.66;4917302;28;45371;-65
2022/01/14 08:25:03;;;;;;;;;46.25;33.25;;;;;7.35;59.02;103152.16;4916775;28;45408;-67
2022/01/14 08:27:29;;;;;;;;;46.00;36.75;;;;;7.36;58.88;103147.78;4915795;28;45548;-67
2022/01/14 08:29:55;;;;;;;;;42.75;30.50;;;;;7.25;58.69;103135.38;4916931;28;45492;-67
2022/01/14 08:32:21;;;;;;;;;37.50;32.50;;;;;7.27;59.06;103126.69;4917371;28;45493;-70
2022/01/14 08:34:47;;;;;;;;;38.75;25.25;;;;;7.32;59.14;103132.38;4916742;28;45629;-66
2022/01/14 08:37:12;;;;;;;;;46.50;32.00;;;;;7.46;58.53;103157.41;4916754;28;45485;-66
2022/01/14 08:39:39;;;;;;;;;46.00;35.00;;;;;7.34;58.76;103145.00;4916766;28;45389;-68
2022/01/14 08:42:09;;;;;;;;;47.00;35.25;;;;;7.36;58.90;103140.72;4916702;28;45638;-68
2022/01/14 08:44:36;;;;;;;;;46.25;32.75;;;;;7.49;58.54;103163.91;4916417;28;46139;-67
2022/01/14 08:47:02;;;;;;;;;35.00;29.25;;;;;7.48;58.01;103155.78;4916269;28;45312;-66
2022/01/14 08:49:27;;;;;;;;;32.00;28.00;;;;;7.45;58.36;103150.22;4917354;28;45396;-68
2022/01/14 08:51:53;;;;;;;;;41.00;35.25;;;;;7.54;58.46;103156.28;4916856;28;45315;-66
2022/01/14 08:54:18;;;;;;;;;58.25;38.00;;;;;7.35;58.44;103120.25;4916967;28;46248;-68
2022/01/14 08:56:44;;;;;;;;;47.00;35.50;;;;;7.55;57.93;103166.09;4916891;28;45420;-69
2022/01/14 08:59:09;;;;;;;;;42.00;32.75;;;;;7.54;58.25;103156.28;4916926;28;45987;-66
2022/01/14 09:01:35;;;;;;;;;34.50;28.50;;;;;7.63;58.17;103159.63;4916313;28;45612;-66
2022/01/14 09:04:02;;;;;;;;;51.50;34.00;;;;;7.65;57.65;103154.44;4916494;28;45879;-67
2022/01/14 09:06:28;;;;;;;;;37.75;33.75;;;;;7.50;57.82;103128.50;4916189;28;45528;-67
2022/01/14 09:08:53;;;;;;;;;42.00;32.75;;;;;7.53;58.20;103126.06;4916710;28;45591;-65
2022/01/14 09:11:19;;;;;;;;;40.00;34.75;;;;;7.61;57.45;103129.31;4916402;28;45404;-66
2022/01/14 09:13:44;;;;;;;;;47.75;37.00;;;;;7.71;57.23;103147.84;4916166;28;46016;-66
2022/01/14 09:16:11;;;;;;;;;43.75;37.50;;;;;7.65;57.30;103133.16;4916182;28;45251;-68
2022/01/14 09:18:36;;;;;;;;;52.25;40.25;;;;;7.67;57.80;103136.84;4917055;28;45557;-67
2022/01/14 09:21:01;;;;;;;;;47.00;36.50;;;;;7.76;57.82;103145.53;4917075;28;45382;-67
2022/01/14 09:23:29;;;;;;;;;38.50;33.50;;;;;7.60;58.12;103114.16;4933079;28;45345;-65
2022/01/14 09:25:55;;;;;;;;;37.25;35.00;;;;;7.76;57.82;103132.22;4935620;28;45480;-69
2022/01/14 09:28:21;;;;;;;;;47.50;33.00;;;;;7.83;57.44;103149.59;4935153;28;45390;-69
2022/01/14 09:30:47;;;;;;;;;36.75;35.00;;;;;7.80;57.51;103136.06;4934436;28;45508;-67
2022/01/14 09:33:12;;;;;;;;;46.25;38.25;;;;;7.81;57.88;103136.16;4934257;28;45370;-66
2022/01/14 09:35:40;;;;;;;;;47.25;35.50;;;;;7.90;57.38;103144.88;4934199;28;45386;-68
2022/01/14 09:38:06;;;;;;;;;43.25;34.50;;;;;7.87;57.41;103136.66;4934282;28;45340;-66
2022/01/14 09:40:31;;;;;;;;;46.00;37.75;;;;;7.92;56.77;103139.66;4937541;28;45490;-67
2022/01/14 09:43:00;;;;;;;;;43.50;35.50;;;;;7.88;56.78;103134.91;4936981;28;45954;-68
2022/01/14 09:45:28;;;;;;;;;54.00;36.75;;;;;7.95;57.27;103145.19;4937349;28;45386;-66
2022/01/14 09:47:55;;;;;;;;;57.25;42.75;;;;;7.98;56.70;103147.16;4937290;28;45486;-67
2022/01/14 09:50:21;;;;;;;;;51.75;42.25;;;;;7.96;57.00;103131.06;4937973;28;45470;-68
2022/01/14 09:52:49;;;;;;;;;53.25;40.00;;;;;8.02;56.29;103131.56;4937577;28;46137;-68
2022/01/14 09:55:15;;;;;;;;;44.25;37.00;;;;;8.09;56.98;103136.50;4937718;28;45553;-67
2022/01/14 09:57:41;;;;;;;;;49.25;36.00;;;;;8.15;56.46;103143.09;4937139;28;45556;-65
2022/01/14 10:00:07;;;;;;;;;26.00;15.25;;;;;8.15;56.01;103143.09;4937701;28;45354;-68
2022/01/14 10:02:37;;;;;;;;;44.75;37.50;;;;;8.09;55.79;103139.16;4936684;28;46389;-66
2022/01/14 10:05:05;;;;;;;;;45.75;37.75;;;;;8.16;56.08;103151.22;4937054;28;45386;-66
2022/01/14 10:07:32;;;;;;;;;49.25;40.25;;;;;8.12;56.10;103150.06;4937118;28;45426;-66
2022/01/14 10:09:58;;;;;;;;;56.00;41.75;;;;;7.93;55.67;103109.56;4937616;28;45330;-66
2022/01/14 10:12:24;;;;;;;;;56.75;44.75;;;;;8.24;55.73;103157.13;4937173;28;46168;-69
2022/01/14 10:14:53;;;;;;;;;51.75;40.25;;;;;8.30;55.63;103158.50;4937378;28;45633;-66
2022/01/14 10:17:19;;;;;;;;;48.00;40.00;;;;;8.22;56.11;103141.03;4937114;28;45522;-66
2022/01/14 10:19:46;;;;;;;;;52.00;41.00;;;;;8.24;55.59;103131.41;4937331;28;45329;-67
2022/01/14 10:22:23;;;;;;;;;55.50;42.00;;;;;8.40;55.12;103152.13;4936717;28;46318;-68
2022/01/14 10:25:10;;;;;;;;;58.50;41.00;;;;;8.44;55.90;103145.31;4936997;28;45343;-67
2022/01/14 10:27:46;;;;;;;;;47.75;37.25;;;;;8.46;55.50;103141.97;4937147;28;45437;-66
2022/01/14 10:30:32;;;;;;;;;49.75;39.75;;;;;8.41;55.68;103124.66;4937147;28;45272;-65
2022/01/14 10:33:04;;;;;;;;;54.00;39.50;;;;;8.52;54.14;103144.13;4936843;28;46448;-71
2022/01/14 10:35:34;;;;;;;;;43.00;36.50;;;;;8.60;52.25;103150.03;4936748;28;45532;-71
2022/01/14 10:38:04;;;;;;;;;47.50;37.25;;;;;8.57;53.35;103144.47;4936959;28;45329;-66
2022/01/14 10:40:32;;;;;;;;;41.75;34.50;;;;;8.62;53.52;103132.41;4937014;28;45516;-67
2022/01/14 10:43:08;;;;;;;;;45.25;34.00;;;;;8.70;52.60;103143.63;4936230;28;46387;-66
2022/01/14 10:45:36;;;;;;;;;48.25;34.50;;;;;8.83;52.85;103146.38;4936580;28;45513;-66
2022/01/14 10:48:04;;;;;;;;;44.00;37.00;;;;;8.86;52.79;103151.94;4936913;28;45674;-68
2022/01/14 10:50:42;;;;;;;;;48.50;38.25;;;;;8.94;52.71;103136.47;4936181;28;45517;-66
2022/01/14 10:53:17;;;;;;;;;45.00;36.50;;;;;8.99;52.06;103132.38;4936586;28;46384;-69
2022/01/14 10:55:47;;;;;;;;;48.50;36.75;;;;;9.06;52.69;103132.03;4919788;28;45451;-67
2022/01/14 10:58:22;;;;;;;;;39.75;35.00;;;;;8.73;50.88;103046.16;4937038;28;45561;-68
2022/01/14 11:00:55;;;;;;;;;41.00;35.00;;;;;9.10;51.67;103099.41;4936667;28;45367;-67
2022/01/14 11:03:35;;;;;;;;;40.75;33.00;;;;;8.88;50.96;103059.66;4936192;28;45575;-67
2022/01/14 11:06:25;;;;;;;;;49.00;36.75;;;;;9.10;50.80;103115.41;4936306;28;45534;-71
2022/01/14 11:09:03;;;;;;;;;41.50;34.00;;;;;9.10;50.52;103118.06;4925191;28;45698;-67
2022/01/14 11:11:31;;;;;;;;;43.50;36.75;;;;;9.14;50.50;103113.88;4936444;28;45339;-66
2022/01/14 11:13:56;;;;;;;;;52.50;41.00;;;;;9.03;50.42;103075.81;4930059;28;45311;-69
2022/01/14 11:16:22;;;;;;;;;51.00;41.00;;;;;9.27;51.34;103108.56;4935869;28;45372;-70
2022/01/14 11:18:48;;;;;;;;;42.00;37.25;;;;;9.38;51.11;103112.91;4935939;28;45292;-66
2022/01/14 11:23:58;;;;;;;;;56.75;44.25;;;;;9.36;50.77;103081.63;4935932;28;45792;-66
2022/01/14 11:26:31;;;;;;;;;53.00;40.75;;;;;9.52;49.89;103102.25;4936028;28;45385;-65
2022/01/14 11:29:07;;;;;;;;;57.75;43.50;;;;;9.49;49.81;103091.41;4919169;28;45467;-69
2022/01/14 11:31:36;;;;;;;;;56.75;37.75;;;;;9.29;49.65;103053.59;4936732;28;45568;-67
2022/01/14 11:34:10;;;;;;;;;55.50;39.00;;;;;9.22;49.22;103035.31;4936081;28;45981;-67
2022/01/14 11:36:59;;;;;;;;;45.25;39.50;;;;;9.65;50.00;103083.63;4936050;28;45396;-66
2022/01/14 11:39:29;;;;;;;;;46.00;37.00;;;;;9.69;49.80;103080.31;4935970;28;45459;-67
2022/01/14 11:41:57;;;;;;;;;52.75;40.25;;;;;9.75;49.99;103074.47;4930158;28;45680;-68
2022/01/14 11:44:41;;;;;;;;;60.50;43.25;;;;;9.81;50.06;103071.31;4929845;28;46388;-67
2022/01/14 11:47:07;;;;;;;;;54.75;40.00;;;;;9.86;49.72;103077.88;4931985;28;45427;-67